Terminal Aerodrome Forecast
Issued by NWS

Home | Current Version | Previous Version | Text Only | Print | Product List | Glossary On
Versions: 1 2 3 4 5 6 7 8 9 10 11 12 13 14
000
FTUS45 KABQ 280528
TAFTCC
TAF
KTCC 280528Z 2806/2906 10012KT P6SM SCT110
     FM280900 25006KT P6SM SKC
     FM281700 18010KT P6SM SKC
     FM282200 18014G20KT P6SM FEW120
     FM290400 26014KT P6SM SCT120=

USA.gov is the U.S. government's official web portal to all federal, state and local government web resources and services.